sensor_id;sensor_type;location;lat;lon;timestamp;P1;durP1;ratioP1;P2;durP2;ratioP2
59336;SDS011;45115;52.002;4.686;2023-08-06T00:00:07;16.23;;;9.27;;
59336;SDS011;45115;52.002;4.686;2023-08-06T00:02:34;15.75;;;9.23;;
59336;SDS011;45115;52.002;4.686;2023-08-06T00:05:01;17.17;;;9.30;;
59336;SDS011;45115;52.002;4.686;2023-08-06T00:07:28;16.10;;;9.38;;
59336;SDS011;45115;52.002;4.686;2023-08-06T00:09:55;19.50;;;9.50;;
59336;SDS011;45115;52.002;4.686;2023-08-06T00:12:23;17.33;;;9.98;;
59336;SDS011;45115;52.002;4.686;2023-08-06T00:14:50;16.30;;;9.07;;
59336;SDS011;45115;52.002;4.686;2023-08-06T00:17:17;17.85;;;9.95;;
59336;SDS011;45115;52.002;4.686;2023-08-06T00:19:44;17.10;;;9.55;;
59336;SDS011;45115;52.002;4.686;2023-08-06T00:22:10;15.60;;;9.00;;
59336;SDS011;45115;52.002;4.686;2023-08-06T00:24:37;18.92;;;9.90;;
59336;SDS011;45115;52.002;4.686;2023-08-06T00:27:04;18.15;;;9.85;;
59336;SDS011;45115;52.002;4.686;2023-08-06T00:29:32;16.23;;;8.82;;
59336;SDS011;45115;52.002;4.686;2023-08-06T00:31:59;16.90;;;9.02;;
59336;SDS011;45115;52.002;4.686;2023-08-06T00:34:25;15.88;;;9.52;;
59336;SDS011;45115;52.002;4.686;2023-08-06T00:36:52;16.85;;;9.60;;
59336;SDS011;45115;52.002;4.686;2023-08-06T00:39:19;16.90;;;10.15;;
59336;SDS011;45115;52.002;4.686;2023-08-06T00:41:46;17.48;;;10.15;;
59336;SDS011;45115;52.002;4.686;2023-08-06T00:44:12;16.92;;;9.73;;
59336;SDS011;45115;52.002;4.686;2023-08-06T00:46:41;16.23;;;9.10;;
59336;SDS011;45115;52.002;4.686;2023-08-06T00:49:07;18.92;;;9.93;;
59336;SDS011;45115;52.002;4.686;2023-08-06T00:51:34;17.70;;;9.55;;
59336;SDS011;45115;52.002;4.686;2023-08-06T00:54:02;16.10;;;9.68;;
59336;SDS011;45115;52.002;4.686;2023-08-06T00:56:29;17.52;;;9.60;;
59336;SDS011;45115;52.002;4.686;2023-08-06T00:58:56;16.58;;;9.77;;
59336;SDS011;45115;52.002;4.686;2023-08-06T01:01:23;17.90;;;9.52;;
59336;SDS011;45115;52.002;4.686;2023-08-06T01:03:51;17.52;;;9.85;;
59336;SDS011;45115;52.002;4.686;2023-08-06T01:06:19;21.38;;;10.55;;
59336;SDS011;45115;52.002;4.686;2023-08-06T01:08:58;15.75;;;9.30;;
59336;SDS011;45115;52.002;4.686;2023-08-06T01:11:31;20.48;;;10.32;;
59336;SDS011;45115;52.002;4.686;2023-08-06T01:14:12;19.23;;;10.68;;
59336;SDS011;45115;52.002;4.686;2023-08-06T01:16:45;17.83;;;10.02;;
59336;SDS011;45115;52.002;4.686;2023-08-06T01:19:17;20.30;;;11.60;;
59336;SDS011;45115;52.002;4.686;2023-08-06T01:21:46;20.13;;;10.75;;
59336;SDS011;45115;52.002;4.686;2023-08-06T01:24:12;19.30;;;10.45;;
59336;SDS011;45115;52.002;4.686;2023-08-06T01:26:41;18.98;;;10.68;;
59336;SDS011;45115;52.002;4.686;2023-08-06T01:29:11;19.35;;;11.50;;
59336;SDS011;45115;52.002;4.686;2023-08-06T01:31:41;17.75;;;10.05;;
59336;SDS011;45115;52.002;4.686;2023-08-06T01:34:10;18.17;;;9.68;;
59336;SDS011;45115;52.002;4.686;2023-08-06T01:36:43;18.65;;;10.70;;
59336;SDS011;45115;52.002;4.686;2023-08-06T01:39:12;19.63;;;10.70;;
59336;SDS011;45115;52.002;4.686;2023-08-06T01:41:39;18.27;;;10.00;;
59336;SDS011;45115;52.002;4.686;2023-08-06T01:44:05;18.25;;;10.25;;
59336;SDS011;45115;52.002;4.686;2023-08-06T01:46:32;17.75;;;9.95;;
59336;SDS011;45115;52.002;4.686;2023-08-06T01:48:59;18.92;;;11.02;;
59336;SDS011;45115;52.002;4.686;2023-08-06T01:51:25;16.30;;;9.70;;
59336;SDS011;45115;52.002;4.686;2023-08-06T01:53:52;18.00;;;10.05;;
59336;SDS011;45115;52.002;4.686;2023-08-06T01:56:20;19.23;;;10.35;;
59336;SDS011;45115;52.002;4.686;2023-08-06T01:58:47;19.08;;;10.32;;
59336;SDS011;45115;52.002;4.686;2023-08-06T02:01:14;17.23;;;9.57;;
59336;SDS011;45115;52.002;4.686;2023-08-06T02:03:40;19.73;;;10.73;;
59336;SDS011;45115;52.002;4.686;2023-08-06T02:06:09;16.25;;;9.38;;
59336;SDS011;45115;52.002;4.686;2023-08-06T02:08:36;16.00;;;9.40;;
59336;SDS011;45115;52.002;4.686;2023-08-06T02:11:03;17.98;;;10.52;;
59336;SDS011;45115;52.002;4.686;2023-08-06T02:13:31;16.38;;;8.98;;
59336;SDS011;45115;52.002;4.686;2023-08-06T02:15:58;17.60;;;9.50;;
59336;SDS011;45115;52.002;4.686;2023-08-06T02:18:25;17.33;;;9.70;;
59336;SDS011;45115;52.002;4.686;2023-08-06T02:20:55;16.05;;;9.30;;
59336;SDS011;45115;52.002;4.686;2023-08-06T02:23:23;19.15;;;10.38;;
59336;SDS011;45115;52.002;4.686;2023-08-06T02:25:56;19.60;;;10.43;;
59336;SDS011;45115;52.002;4.686;2023-08-06T02:28:23;18.08;;;10.82;;
59336;SDS011;45115;52.002;4.686;2023-08-06T02:30:51;16.65;;;9.77;;
59336;SDS011;45115;52.002;4.686;2023-08-06T02:33:18;18.40;;;10.15;;
59336;SDS011;45115;52.002;4.686;2023-08-06T02:35:44;19.05;;;10.10;;
59336;SDS011;45115;52.002;4.686;2023-08-06T02:38:11;18.83;;;11.18;;
59336;SDS011;45115;52.002;4.686;2023-08-06T02:40:42;18.30;;;10.02;;
59336;SDS011;45115;52.002;4.686;2023-08-06T02:43:10;18.80;;;10.00;;
59336;SDS011;45115;52.002;4.686;2023-08-06T02:45:36;19.55;;;10.25;;
59336;SDS011;45115;52.002;4.686;2023-08-06T02:48:04;18.83;;;10.10;;
59336;SDS011;45115;52.002;4.686;2023-08-06T02:50:37;18.50;;;10.57;;
59336;SDS011;45115;52.002;4.686;2023-08-06T02:53:04;21.00;;;11.32;;
59336;SDS011;45115;52.002;4.686;2023-08-06T02:55:30;17.77;;;10.88;;
59336;SDS011;45115;52.002;4.686;2023-08-06T02:57:57;20.42;;;10.75;;
59336;SDS011;45115;52.002;4.686;2023-08-06T03:00:24;19.42;;;11.75;;
59336;SDS011;45115;52.002;4.686;2023-08-06T03:02:50;18.17;;;10.80;;
59336;SDS011;45115;52.002;4.686;2023-08-06T03:05:33;17.77;;;10.50;;
59336;SDS011;45115;52.002;4.686;2023-08-06T03:08:00;21.17;;;11.35;;
59336;SDS011;45115;52.002;4.686;2023-08-06T03:10:28;19.83;;;10.93;;
59336;SDS011;45115;52.002;4.686;2023-08-06T03:12:59;20.63;;;11.00;;
59336;SDS011;45115;52.002;4.686;2023-08-06T03:15:27;20.08;;;10.85;;
59336;SDS011;45115;52.002;4.686;2023-08-06T03:17:55;18.40;;;10.77;;
59336;SDS011;45115;52.002;4.686;2023-08-06T03:20:22;22.02;;;12.25;;
59336;SDS011;45115;52.002;4.686;2023-08-06T03:22:51;21.25;;;11.95;;
59336;SDS011;45115;52.002;4.686;2023-08-06T03:25:18;20.85;;;12.25;;
59336;SDS011;45115;52.002;4.686;2023-08-06T03:27:47;22.27;;;11.65;;
59336;SDS011;45115;52.002;4.686;2023-08-06T03:30:16;24.08;;;13.07;;
59336;SDS011;45115;52.002;4.686;2023-08-06T03:32:43;25.48;;;12.93;;
59336;SDS011;45115;52.002;4.686;2023-08-06T03:35:10;22.15;;;12.52;;
59336;SDS011;45115;52.002;4.686;2023-08-06T03:37:37;23.70;;;12.48;;
59336;SDS011;45115;52.002;4.686;2023-08-06T03:40:07;24.60;;;12.95;;
59336;SDS011;45115;52.002;4.686;2023-08-06T03:42:35;24.03;;;12.93;;
59336;SDS011;45115;52.002;4.686;2023-08-06T03:45:02;22.20;;;13.52;;
59336;SDS011;45115;52.002;4.686;2023-08-06T03:47:31;22.60;;;12.77;;
59336;SDS011;45115;52.002;4.686;2023-08-06T03:49:58;21.65;;;12.30;;
59336;SDS011;45115;52.002;4.686;2023-08-06T03:52:25;21.67;;;12.55;;
59336;SDS011;45115;52.002;4.686;2023-08-06T03:54:52;22.27;;;12.68;;
59336;SDS011;45115;52.002;4.686;2023-08-06T03:57:20;23.45;;;12.95;;
59336;SDS011;45115;52.002;4.686;2023-08-06T03:59:48;23.27;;;12.52;;
59336;SDS011;45115;52.002;4.686;2023-08-06T04:02:15;21.98;;;10.95;;
59336;SDS011;45115;52.002;4.686;2023-08-06T04:04:42;21.27;;;11.05;;
59336;SDS011;45115;52.002;4.686;2023-08-06T04:07:09;24.58;;;12.75;;
59336;SDS011;45115;52.002;4.686;2023-08-06T04:09:50;17.17;;;9.18;;
59336;SDS011;45115;52.002;4.686;2023-08-06T04:12:18;18.15;;;10.00;;
59336;SDS011;45115;52.002;4.686;2023-08-06T04:14:46;18.25;;;9.45;;
59336;SDS011;45115;52.002;4.686;2023-08-06T04:17:13;18.92;;;9.80;;
59336;SDS011;45115;52.002;4.686;2023-08-06T04:19:39;15.18;;;7.78;;
59336;SDS011;45115;52.002;4.686;2023-08-06T04:22:06;15.40;;;6.88;;
59336;SDS011;45115;52.002;4.686;2023-08-06T04:24:33;15.15;;;7.82;;
59336;SDS011;45115;52.002;4.686;2023-08-06T04:27:00;13.30;;;6.72;;
59336;SDS011;45115;52.002;4.686;2023-08-06T04:29:27;14.85;;;7.18;;
59336;SDS011;45115;52.002;4.686;2023-08-06T04:31:55;13.40;;;6.47;;
59336;SDS011;45115;52.002;4.686;2023-08-06T04:34:21;14.50;;;6.68;;
59336;SDS011;45115;52.002;4.686;2023-08-06T04:36:48;14.90;;;6.85;;
59336;SDS011;45115;52.002;4.686;2023-08-06T04:39:15;12.65;;;6.00;;
59336;SDS011;45115;52.002;4.686;2023-08-06T04:41:42;12.55;;;6.30;;
59336;SDS011;45115;52.002;4.686;2023-08-06T04:44:08;14.68;;;6.38;;
59336;SDS011;45115;52.002;4.686;2023-08-06T04:46:35;13.15;;;6.70;;
59336;SDS011;45115;52.002;4.686;2023-08-06T04:49:03;11.50;;;6.18;;
59336;SDS011;45115;52.002;4.686;2023-08-06T04:51:30;11.30;;;5.70;;
59336;SDS011;45115;52.002;4.686;2023-08-06T04:53:56;12.48;;;5.38;;
59336;SDS011;45115;52.002;4.686;2023-08-06T04:56:23;11.07;;;5.90;;
59336;SDS011;45115;52.002;4.686;2023-08-06T04:58:50;12.27;;;6.00;;
59336;SDS011;45115;52.002;4.686;2023-08-06T05:01:17;11.98;;;6.07;;
59336;SDS011;45115;52.002;4.686;2023-08-06T05:03:44;12.23;;;5.90;;
59336;SDS011;45115;52.002;4.686;2023-08-06T05:06:12;12.50;;;5.95;;
59336;SDS011;45115;52.002;4.686;2023-08-06T05:08:39;12.00;;;6.18;;
59336;SDS011;45115;52.002;4.686;2023-08-06T05:11:05;10.75;;;5.85;;
59336;SDS011;45115;52.002;4.686;2023-08-06T05:13:32;12.27;;;6.05;;
59336;SDS011;45115;52.002;4.686;2023-08-06T05:15:59;12.60;;;6.70;;
59336;SDS011;45115;52.002;4.686;2023-08-06T05:18:26;13.48;;;6.10;;
59336;SDS011;45115;52.002;4.686;2023-08-06T05:20:53;10.90;;;5.35;;
59336;SDS011;45115;52.002;4.686;2023-08-06T05:23:21;10.85;;;5.95;;
59336;SDS011;45115;52.002;4.686;2023-08-06T05:25:48;12.55;;;6.18;;
59336;SDS011;45115;52.002;4.686;2023-08-06T05:28:14;9.55;;;5.47;;
59336;SDS011;45115;52.002;4.686;2023-08-06T05:30:41;12.55;;;5.97;;
59336;SDS011;45115;52.002;4.686;2023-08-06T05:33:07;13.63;;;5.65;;
59336;SDS011;45115;52.002;4.686;2023-08-06T05:35:34;11.05;;;5.72;;
59336;SDS011;45115;52.002;4.686;2023-08-06T05:38:01;14.98;;;5.88;;
59336;SDS011;45115;52.002;4.686;2023-08-06T05:40:29;10.52;;;5.80;;
59336;SDS011;45115;52.002;4.686;2023-08-06T05:42:55;10.90;;;6.15;;
59336;SDS011;45115;52.002;4.686;2023-08-06T05:45:22;11.48;;;5.95;;
59336;SDS011;45115;52.002;4.686;2023-08-06T05:47:49;12.35;;;6.30;;
59336;SDS011;45115;52.002;4.686;2023-08-06T05:50:15;12.82;;;6.70;;
59336;SDS011;45115;52.002;4.686;2023-08-06T05:52:43;14.35;;;6.47;;
59336;SDS011;45115;52.002;4.686;2023-08-06T05:55:09;14.63;;;6.65;;
59336;SDS011;45115;52.002;4.686;2023-08-06T05:57:37;17.35;;;7.28;;
59336;SDS011;45115;52.002;4.686;2023-08-06T06:00:04;14.10;;;7.03;;
59336;SDS011;45115;52.002;4.686;2023-08-06T06:02:37;11.43;;;6.30;;
59336;SDS011;45115;52.002;4.686;2023-08-06T06:05:04;15.15;;;6.05;;
59336;SDS011;45115;52.002;4.686;2023-08-06T06:07:31;13.25;;;6.25;;
59336;SDS011;45115;52.002;4.686;2023-08-06T06:09:58;14.02;;;6.53;;
59336;SDS011;45115;52.002;4.686;2023-08-06T06:12:24;13.80;;;7.45;;
59336;SDS011;45115;52.002;4.686;2023-08-06T06:14:52;13.52;;;6.90;;
59336;SDS011;45115;52.002;4.686;2023-08-06T06:17:19;14.18;;;7.05;;
59336;SDS011;45115;52.002;4.686;2023-08-06T06:19:46;16.58;;;7.15;;
59336;SDS011;45115;52.002;4.686;2023-08-06T06:22:13;13.05;;;7.18;;
59336;SDS011;45115;52.002;4.686;2023-08-06T06:24:40;15.82;;;7.68;;
59336;SDS011;45115;52.002;4.686;2023-08-06T06:27:07;14.10;;;7.03;;
59336;SDS011;45115;52.002;4.686;2023-08-06T06:29:33;16.48;;;6.88;;
59336;SDS011;45115;52.002;4.686;2023-08-06T06:32:01;16.27;;;7.50;;
59336;SDS011;45115;52.002;4.686;2023-08-06T06:34:28;18.15;;;7.35;;
59336;SDS011;45115;52.002;4.686;2023-08-06T06:36:55;14.35;;;7.32;;
59336;SDS011;45115;52.002;4.686;2023-08-06T06:39:21;16.13;;;7.57;;
59336;SDS011;45115;52.002;4.686;2023-08-06T06:41:48;15.43;;;7.32;;
59336;SDS011;45115;52.002;4.686;2023-08-06T06:44:23;15.00;;;6.78;;
59336;SDS011;45115;52.002;4.686;2023-08-06T06:46:51;15.35;;;7.22;;
59336;SDS011;45115;52.002;4.686;2023-08-06T06:49:19;14.25;;;6.72;;
59336;SDS011;45115;52.002;4.686;2023-08-06T06:51:45;13.02;;;6.10;;
59336;SDS011;45115;52.002;4.686;2023-08-06T06:54:12;13.55;;;6.15;;
59336;SDS011;45115;52.002;4.686;2023-08-06T06:56:39;14.52;;;6.50;;
59336;SDS011;45115;52.002;4.686;2023-08-06T06:59:06;12.23;;;5.72;;
59336;SDS011;45115;52.002;4.686;2023-08-06T07:01:32;13.00;;;5.38;;
59336;SDS011;45115;52.002;4.686;2023-08-06T07:03:59;9.80;;;5.32;;
59336;SDS011;45115;52.002;4.686;2023-08-06T07:06:31;13.68;;;4.78;;
59336;SDS011;45115;52.002;4.686;2023-08-06T07:08:58;10.50;;;4.60;;
59336;SDS011;45115;52.002;4.686;2023-08-06T07:11:24;10.13;;;3.90;;
59336;SDS011;45115;52.002;4.686;2023-08-06T07:13:55;8.77;;;4.20;;
59336;SDS011;45115;52.002;4.686;2023-08-06T07:16:23;10.40;;;3.70;;
59336;SDS011;45115;52.002;4.686;2023-08-06T07:18:50;7.45;;;3.55;;
59336;SDS011;45115;52.002;4.686;2023-08-06T07:21:17;6.80;;;3.10;;
59336;SDS011;45115;52.002;4.686;2023-08-06T07:23:45;8.02;;;3.42;;
59336;SDS011;45115;52.002;4.686;2023-08-06T07:26:14;7.32;;;3.15;;
59336;SDS011;45115;52.002;4.686;2023-08-06T07:28:41;6.55;;;2.55;;
59336;SDS011;45115;52.002;4.686;2023-08-06T07:31:08;4.47;;;2.72;;
59336;SDS011;45115;52.002;4.686;2023-08-06T07:33:35;5.53;;;2.78;;
59336;SDS011;45115;52.002;4.686;2023-08-06T07:36:07;6.05;;;2.38;;
59336;SDS011;45115;52.002;4.686;2023-08-06T07:38:34;6.20;;;2.38;;
59336;SDS011;45115;52.002;4.686;2023-08-06T07:41:02;5.43;;;2.95;;
59336;SDS011;45115;52.002;4.686;2023-08-06T07:43:29;4.95;;;2.67;;
59336;SDS011;45115;52.002;4.686;2023-08-06T07:45:57;9.18;;;2.85;;
59336;SDS011;45115;52.002;4.686;2023-08-06T07:48:24;6.22;;;3.13;;
59336;SDS011;45115;52.002;4.686;2023-08-06T07:50:51;5.60;;;2.70;;
59336;SDS011;45115;52.002;4.686;2023-08-06T07:53:18;4.75;;;2.67;;
59336;SDS011;45115;52.002;4.686;2023-08-06T07:55:47;4.18;;;2.50;;
59336;SDS011;45115;52.002;4.686;2023-08-06T07:58:17;5.45;;;2.63;;
59336;SDS011;45115;52.002;4.686;2023-08-06T08:00:44;6.43;;;2.80;;
59336;SDS011;45115;52.002;4.686;2023-08-06T08:03:10;6.93;;;2.83;;
59336;SDS011;45115;52.002;4.686;2023-08-06T08:05:38;5.60;;;2.80;;
59336;SDS011;45115;52.002;4.686;2023-08-06T08:08:05;6.05;;;2.70;;
59336;SDS011;45115;52.002;4.686;2023-08-06T08:10:32;4.32;;;2.28;;
59336;SDS011;45115;52.002;4.686;2023-08-06T08:12:58;6.05;;;2.58;;
59336;SDS011;45115;52.002;4.686;2023-08-06T08:15:27;4.90;;;2.55;;
59336;SDS011;45115;52.002;4.686;2023-08-06T08:17:54;7.93;;;2.65;;
59336;SDS011;45115;52.002;4.686;2023-08-06T08:20:21;5.20;;;2.40;;
59336;SDS011;45115;52.002;4.686;2023-08-06T08:22:48;7.38;;;2.58;;
59336;SDS011;45115;52.002;4.686;2023-08-06T08:25:15;5.63;;;2.30;;
59336;SDS011;45115;52.002;4.686;2023-08-06T08:27:42;5.50;;;2.60;;
59336;SDS011;45115;52.002;4.686;2023-08-06T08:30:09;5.10;;;2.47;;
59336;SDS011;45115;52.002;4.686;2023-08-06T08:32:37;6.57;;;2.33;;
59336;SDS011;45115;52.002;4.686;2023-08-06T08:35:04;5.50;;;2.40;;
59336;SDS011;45115;52.002;4.686;2023-08-06T08:37:31;5.55;;;2.63;;
59336;SDS011;45115;52.002;4.686;2023-08-06T08:39:58;4.50;;;2.20;;
59336;SDS011;45115;52.002;4.686;2023-08-06T08:42:25;4.85;;;2.15;;
59336;SDS011;45115;52.002;4.686;2023-08-06T08:44:53;2.55;;;2.05;;
59336;SDS011;45115;52.002;4.686;2023-08-06T08:47:20;6.40;;;2.45;;
59336;SDS011;45115;52.002;4.686;2023-08-06T08:49:49;4.60;;;2.25;;
59336;SDS011;45115;52.002;4.686;2023-08-06T08:52:18;7.25;;;2.30;;
59336;SDS011;45115;52.002;4.686;2023-08-06T08:54:46;5.70;;;2.35;;
59336;SDS011;45115;52.002;4.686;2023-08-06T08:57:16;7.32;;;2.60;;
59336;SDS011;45115;52.002;4.686;2023-08-06T08:59:43;7.32;;;2.92;;
59336;SDS011;45115;52.002;4.686;2023-08-06T09:02:10;5.18;;;2.72;;
59336;SDS011;45115;52.002;4.686;2023-08-06T09:04:38;4.63;;;2.38;;
59336;SDS011;45115;52.002;4.686;2023-08-06T09:07:08;5.20;;;2.38;;
59336;SDS011;45115;52.002;4.686;2023-08-06T09:09:38;4.53;;;2.33;;
59336;SDS011;45115;52.002;4.686;2023-08-06T09:12:13;7.97;;;3.10;;
59336;SDS011;45115;52.002;4.686;2023-08-06T09:14:41;5.10;;;2.17;;
59336;SDS011;45115;52.002;4.686;2023-08-06T09:17:09;5.13;;;2.58;;
59336;SDS011;45115;52.002;4.686;2023-08-06T09:19:36;5.45;;;2.60;;
59336;SDS011;45115;52.002;4.686;2023-08-06T09:22:03;4.10;;;2.38;;
59336;SDS011;45115;52.002;4.686;2023-08-06T09:24:39;5.63;;;2.95;;
59336;SDS011;45115;52.002;4.686;2023-08-06T09:27:10;3.97;;;2.22;;
59336;SDS011;45115;52.002;4.686;2023-08-06T09:29:39;4.95;;;2.50;;
59336;SDS011;45115;52.002;4.686;2023-08-06T09:32:07;3.83;;;2.47;;
59336;SDS011;45115;52.002;4.686;2023-08-06T09:34:34;4.97;;;2.20;;
59336;SDS011;45115;52.002;4.686;2023-08-06T09:37:01;6.95;;;2.58;;
59336;SDS011;45115;52.002;4.686;2023-08-06T09:39:30;5.20;;;2.55;;
59336;SDS011;45115;52.002;4.686;2023-08-06T09:41:59;4.22;;;2.35;;
59336;SDS011;45115;52.002;4.686;2023-08-06T09:44:26;4.32;;;2.10;;
59336;SDS011;45115;52.002;4.686;2023-08-06T09:46:54;3.97;;;2.40;;
59336;SDS011;45115;52.002;4.686;2023-08-06T09:49:24;4.88;;;2.50;;
59336;SDS011;45115;52.002;4.686;2023-08-06T09:51:52;4.30;;;2.33;;
59336;SDS011;45115;52.002;4.686;2023-08-06T09:54:22;5.22;;;2.30;;
59336;SDS011;45115;52.002;4.686;2023-08-06T09:56:52;4.45;;;2.17;;
59336;SDS011;45115;52.002;4.686;2023-08-06T09:59:20;4.93;;;2.17;;
59336;SDS011;45115;52.002;4.686;2023-08-06T10:01:47;3.25;;;1.90;;
59336;SDS011;45115;52.002;4.686;2023-08-06T10:04:14;5.65;;;1.98;;
59336;SDS011;45115;52.002;4.686;2023-08-06T10:06:43;6.22;;;1.90;;
59336;SDS011;45115;52.002;4.686;2023-08-06T10:09:13;5.28;;;2.10;;
59336;SDS011;45115;52.002;4.686;2023-08-06T10:11:40;4.30;;;2.40;;
59336;SDS011;45115;52.002;4.686;2023-08-06T10:14:10;6.03;;;2.20;;
59336;SDS011;45115;52.002;4.686;2023-08-06T10:16:41;5.35;;;2.00;;
59336;SDS011;45115;52.002;4.686;2023-08-06T10:19:09;4.88;;;1.90;;
59336;SDS011;45115;52.002;4.686;2023-08-06T10:21:37;3.25;;;2.10;;
59336;SDS011;45115;52.002;4.686;2023-08-06T10:24:06;3.03;;;1.85;;
59336;SDS011;45115;52.002;4.686;2023-08-06T10:26:34;3.17;;;1.85;;
59336;SDS011;45115;52.002;4.686;2023-08-06T10:29:01;2.65;;;1.58;;
59336;SDS011;45115;52.002;4.686;2023-08-06T10:31:58;4.93;;;1.95;;
59336;SDS011;45115;52.002;4.686;2023-08-06T10:34:32;3.80;;;1.58;;
59336;SDS011;45115;52.002;4.686;2023-08-06T10:37:19;4.72;;;1.92;;
59336;SDS011;45115;52.002;4.686;2023-08-06T10:39:48;2.92;;;2.00;;
59336;SDS011;45115;52.002;4.686;2023-08-06T10:42:19;3.30;;;1.80;;
59336;SDS011;45115;52.002;4.686;2023-08-06T10:47:38;4.18;;;1.60;;
59336;SDS011;45115;52.002;4.686;2023-08-06T10:50:06;3.33;;;1.55;;
59336;SDS011;45115;52.002;4.686;2023-08-06T10:52:33;2.00;;;1.23;;
59336;SDS011;45115;52.002;4.686;2023-08-06T10:55:00;3.47;;;1.85;;
59336;SDS011;45115;52.002;4.686;2023-08-06T10:57:26;3.47;;;1.50;;
59336;SDS011;45115;52.002;4.686;2023-08-06T10:59:53;2.30;;;1.65;;
59336;SDS011;45115;52.002;4.686;2023-08-06T11:02:20;4.07;;;1.83;;
59336;SDS011;45115;52.002;4.686;2023-08-06T11:04:48;5.35;;;2.10;;
59336;SDS011;45115;52.002;4.686;2023-08-06T11:07:15;3.42;;;1.42;;
59336;SDS011;45115;52.002;4.686;2023-08-06T11:09:42;2.50;;;1.35;;
59336;SDS011;45115;52.002;4.686;2023-08-06T11:12:08;2.13;;;1.88;;
59336;SDS011;45115;52.002;4.686;2023-08-06T11:14:36;2.22;;;1.70;;
59336;SDS011;45115;52.002;4.686;2023-08-06T11:17:03;2.00;;;1.60;;
59336;SDS011;45115;52.002;4.686;2023-08-06T11:19:31;3.53;;;2.15;;
59336;SDS011;45115;52.002;4.686;2023-08-06T11:21:59;2.47;;;1.60;;
59336;SDS011;45115;52.002;4.686;2023-08-06T11:24:27;1.70;;;1.52;;
59336;SDS011;45115;52.002;4.686;2023-08-06T11:26:53;3.17;;;1.80;;
59336;SDS011;45115;52.002;4.686;2023-08-06T11:29:20;3.10;;;1.80;;
59336;SDS011;45115;52.002;4.686;2023-08-06T11:31:48;4.35;;;1.75;;
59336;SDS011;45115;52.002;4.686;2023-08-06T11:34:15;4.40;;;1.85;;
59336;SDS011;45115;52.002;4.686;2023-08-06T11:36:42;2.70;;;1.95;;
59336;SDS011;45115;52.002;4.686;2023-08-06T11:39:10;3.38;;;1.40;;
59336;SDS011;45115;52.002;4.686;2023-08-06T11:41:37;2.70;;;1.42;;
59336;SDS011;45115;52.002;4.686;2023-08-06T11:44:05;2.97;;;1.73;;
59336;SDS011;45115;52.002;4.686;2023-08-06T11:49:17;1.98;;;1.52;;
59336;SDS011;45115;52.002;4.686;2023-08-06T11:51:46;5.30;;;2.15;;
59336;SDS011;45115;52.002;4.686;2023-08-06T11:54:15;3.97;;;1.40;;
59336;SDS011;45115;52.002;4.686;2023-08-06T11:56:41;5.35;;;1.58;;
59336;SDS011;45115;52.002;4.686;2023-08-06T11:59:08;1.58;;;1.25;;
59336;SDS011;45115;52.002;4.686;2023-08-06T12:01:35;1.85;;;1.30;;
59336;SDS011;45115;52.002;4.686;2023-08-06T12:04:04;2.90;;;1.20;;
59336;SDS011;45115;52.002;4.686;2023-08-06T12:06:30;2.35;;;1.40;;
59336;SDS011;45115;52.002;4.686;2023-08-06T12:09:07;2.80;;;1.45;;
59336;SDS011;45115;52.002;4.686;2023-08-06T12:11:36;3.63;;;1.50;;
59336;SDS011;45115;52.002;4.686;2023-08-06T12:14:03;1.15;;;0.80;;
59336;SDS011;45115;52.002;4.686;2023-08-06T12:16:30;3.90;;;1.23;;
59336;SDS011;45115;52.002;4.686;2023-08-06T12:18:56;3.40;;;1.40;;
59336;SDS011;45115;52.002;4.686;2023-08-06T12:21:23;4.07;;;1.20;;
59336;SDS011;45115;52.002;4.686;2023-08-06T12:23:50;4.70;;;1.30;;
59336;SDS011;45115;52.002;4.686;2023-08-06T12:26:16;2.75;;;0.95;;
59336;SDS011;45115;52.002;4.686;2023-08-06T12:28:44;3.72;;;1.98;;
59336;SDS011;45115;52.002;4.686;2023-08-06T12:31:11;0.85;;;0.80;;
59336;SDS011;45115;52.002;4.686;2023-08-06T12:33:37;2.05;;;0.93;;
59336;SDS011;45115;52.002;4.686;2023-08-06T12:36:04;2.63;;;1.15;;
59336;SDS011;45115;52.002;4.686;2023-08-06T12:38:31;2.30;;;1.17;;
59336;SDS011;45115;52.002;4.686;2023-08-06T12:40:59;3.60;;;0.80;;
59336;SDS011;45115;52.002;4.686;2023-08-06T12:43:25;0.80;;;0.80;;
59336;SDS011;45115;52.002;4.686;2023-08-06T12:45:53;2.38;;;1.27;;
59336;SDS011;45115;52.002;4.686;2023-08-06T12:48:20;2.47;;;1.08;;
59336;SDS011;45115;52.002;4.686;2023-08-06T12:50:47;1.05;;;0.80;;
59336;SDS011;45115;52.002;4.686;2023-08-06T12:53:14;2.58;;;1.40;;
59336;SDS011;45115;52.002;4.686;2023-08-06T12:55:41;3.67;;;1.25;;
59336;SDS011;45115;52.002;4.686;2023-08-06T12:58:08;3.40;;;1.10;;
59336;SDS011;45115;52.002;4.686;2023-08-06T13:00:35;1.77;;;1.00;;
59336;SDS011;45115;52.002;4.686;2023-08-06T13:03:04;1.88;;;0.80;;
59336;SDS011;45115;52.002;4.686;2023-08-06T13:05:30;3.17;;;1.08;;
59336;SDS011;45115;52.002;4.686;2023-08-06T13:07:57;0.88;;;0.88;;
59336;SDS011;45115;52.002;4.686;2023-08-06T13:10:24;1.10;;;0.90;;
59336;SDS011;45115;52.002;4.686;2023-08-06T13:12:52;2.85;;;1.40;;
59336;SDS011;45115;52.002;4.686;2023-08-06T13:15:19;2.03;;;0.93;;
59336;SDS011;45115;52.002;4.686;2023-08-06T13:17:47;1.00;;;0.75;;
59336;SDS011;45115;52.002;4.686;2023-08-06T13:20:15;1.27;;;0.80;;
59336;SDS011;45115;52.002;4.686;2023-08-06T13:22:42;1.00;;;0.90;;
59336;SDS011;45115;52.002;4.686;2023-08-06T13:25:11;2.50;;;1.17;;
59336;SDS011;45115;52.002;4.686;2023-08-06T13:27:39;4.20;;;1.48;;
59336;SDS011;45115;52.002;4.686;2023-08-06T13:30:07;1.83;;;1.50;;
59336;SDS011;45115;52.002;4.686;2023-08-06T13:32:35;4.07;;;1.73;;
59336;SDS011;45115;52.002;4.686;2023-08-06T13:35:02;3.08;;;1.70;;
59336;SDS011;45115;52.002;4.686;2023-08-06T13:37:30;1.67;;;1.40;;
59336;SDS011;45115;52.002;4.686;2023-08-06T13:39:57;4.93;;;1.77;;
59336;SDS011;45115;52.002;4.686;2023-08-06T13:42:24;4.80;;;1.90;;
59336;SDS011;45115;52.002;4.686;2023-08-06T13:44:50;4.22;;;1.65;;
59336;SDS011;45115;52.002;4.686;2023-08-06T13:47:24;3.28;;;1.67;;
59336;SDS011;45115;52.002;4.686;2023-08-06T13:49:51;3.53;;;1.90;;
59336;SDS011;45115;52.002;4.686;2023-08-06T13:52:18;5.57;;;1.80;;
59336;SDS011;45115;52.002;4.686;2023-08-06T13:54:46;2.90;;;1.63;;
59336;SDS011;45115;52.002;4.686;2023-08-06T13:57:12;4.90;;;1.70;;
59336;SDS011;45115;52.002;4.686;2023-08-06T13:59:39;7.15;;;1.77;;
59336;SDS011;45115;52.002;4.686;2023-08-06T14:02:06;6.75;;;1.80;;
59336;SDS011;45115;52.002;4.686;2023-08-06T14:04:32;4.68;;;1.38;;
59336;SDS011;45115;52.002;4.686;2023-08-06T14:06:59;7.45;;;1.55;;
59336;SDS011;45115;52.002;4.686;2023-08-06T14:09:26;4.68;;;1.88;;
59336;SDS011;45115;52.002;4.686;2023-08-06T14:11:54;4.63;;;1.40;;
59336;SDS011;45115;52.002;4.686;2023-08-06T14:14:21;7.72;;;1.67;;
59336;SDS011;45115;52.002;4.686;2023-08-06T14:16:51;4.50;;;1.63;;
59336;SDS011;45115;52.002;4.686;2023-08-06T14:19:18;6.00;;;1.70;;
59336;SDS011;45115;52.002;4.686;2023-08-06T14:21:44;6.15;;;1.88;;
59336;SDS011;45115;52.002;4.686;2023-08-06T14:24:11;8.05;;;1.70;;
59336;SDS011;45115;52.002;4.686;2023-08-06T14:26:38;5.82;;;1.83;;
59336;SDS011;45115;52.002;4.686;2023-08-06T14:29:06;6.45;;;1.60;;
59336;SDS011;45115;52.002;4.686;2023-08-06T14:31:33;6.18;;;1.70;;
59336;SDS011;45115;52.002;4.686;2023-08-06T14:33:59;3.28;;;1.63;;
59336;SDS011;45115;52.002;4.686;2023-08-06T14:36:26;5.70;;;1.55;;
59336;SDS011;45115;52.002;4.686;2023-08-06T14:38:53;7.15;;;1.77;;
59336;SDS011;45115;52.002;4.686;2023-08-06T14:41:19;4.90;;;1.55;;
59336;SDS011;45115;52.002;4.686;2023-08-06T14:43:46;7.45;;;2.20;;
59336;SDS011;45115;52.002;4.686;2023-08-06T14:46:14;7.15;;;2.25;;